Wetterdaten: Woche 30.01.23 - 05.02.23 (KW5)
Datum Zeit Temp. Aussen Temp. o. S. Temp +5cm Feuchte Auss Luftdruck Regen Sonnenschein Regendauer Solar Windben Empfang
30.01.2023 00:00 3,1 C 2,6 C -0,6 C 93 % 1020,4 hPa 0,0 l/m 0,00 h 0,00 h 0 W/m 22,9 km/h (4 Bft) 85,40 %
30.01.2023 01:00 3,5 C 3,0 C 0,0 C 93 % 1019,5 hPa 0,0 l/m 0,00 h 0,00 h 0 W/m 22,3 km/h (4 Bft) 96,69 %
30.01.2023 02:00 4,0 C 3,3 C 0,3 C 94 % 1018,8 hPa 0,0 l/m 0,00 h 0,00 h 0 W/m 20,5 km/h (4 Bft) 98,45 %
30.01.2023 03:00 4,2 C 3,5 C 0,6 C 94 % 1018,0 hPa 0,0 l/m 0,00 h 0,00 h 0 W/m 22,4 km/h (4 Bft) 94,17 %
30.01.2023 04:00 4,4 C 3,9 C 0,8 C 95 % 1017,2 hPa 0,0 l/m 0,00 h 0,37 h 0 W/m 21,7 km/h (4 Bft) 99,24 %
30.01.2023 05:00 4,9 C 4,1 C 1,1 C 96 % 1016,6 hPa 0,2 l/m 0,00 h 0,57 h 0 W/m 22,1 km/h (4 Bft) 93,44 %
30.01.2023 06:00 5,2 C 4,4 C 1,4 C 97 % 1016,4 hPa 0,2 l/m 0,00 h 0,37 h 0 W/m 20,2 km/h (4 Bft) 95,83 %
30.01.2023 07:00 5,5 C 4,7 C 1,9 C 98 % 1016,5 hPa 0,6 l/m 0,00 h 0,53 h 0 W/m 17,4 km/h (3 Bft) 91,39 %
30.01.2023 08:00 5,8 C 5,3 C 2,2 C 98 % 1016,8 hPa 0,0 l/m 0,00 h 0,00 h 10 W/m 17,5 km/h (3 Bft) 97,73 %
30.01.2023 09:00 5,9 C 5,5 C 2,2 C 97 % 1017,2 hPa 0,0 l/m 0,20 h 0,00 h 62 W/m 14,7 km/h (3 Bft) 95,62 %
30.01.2023 10:00 6,5 C 7,7 C 2,3 C 92 % 1017,7 hPa 0,0 l/m 0,90 h 0,00 h 207 W/m 19,5 km/h (3 Bft) 98,03 %
30.01.2023 11:00 6,8 C 6,8 C 2,4 C 86 % 1018,1 hPa 0,0 l/m 0,17 h 0,00 h 100 W/m 21,4 km/h (4 Bft) 93,25 %
30.01.2023 12:00 7,0 C 6,7 C 3,3 C 82 % 1018,3 hPa 0,0 l/m 0,00 h 0,00 h 94 W/m 22,4 km/h (4 Bft) 96,57 %
30.01.2023 13:00 7,3 C 7,3 C 3,5 C 79 % 1018,4 hPa 0,0 l/m 0,10 h 0,03 h 124 W/m 23,4 km/h (4 Bft) 97,54 %
30.01.2023 14:00 7,6 C 7,2 C 3,4 C 77 % 1018,9 hPa 0,0 l/m 0,00 h 0,00 h 95 W/m 27,4 km/h (4 Bft) 94,72 %
30.01.2023 15:00 7,5 C 7,0 C 3,2 C 78 % 1019,6 hPa 0,0 l/m 0,00 h 0,13 h 69 W/m 19,1 km/h (3 Bft) 96,60 %
30.01.2023 16:00 6,9 C 6,4 C 2,6 C 82 % 1020,6 hPa 0,0 l/m 0,03 h 0,10 h 33 W/m 18,6 km/h (3 Bft) 96,38 %
30.01.2023 17:00 6,5 C 5,9 C 2,2 C 82 % 1021,5 hPa 0,0 l/m 0,00 h 0,00 h 9 W/m 16,2 km/h (3 Bft) 95,16 %
30.01.2023 18:00 6,4 C 5,7 C 2,1 C 82 % 1022,5 hPa 0,0 l/m 0,00 h 0,00 h 0 W/m 15,4 km/h (3 Bft) 98,82 %
30.01.2023 19:00 5,6 C 4,8 C 1,5 C 85 % 1023,3 hPa 0,0 l/m 0,00 h 0,00 h 0 W/m 13,5 km/h (3 Bft) 95,57 %
30.01.2023 20:00 5,0 C 4,3 C 1,0 C 88 % 1023,8 hPa 0,0 l/m 0,00 h 0,00 h 0 W/m 11,3 km/h (2 Bft) 94,75 %
30.01.2023 21:00 4,8 C 4,2 C 0,8 C 88 % 1024,5 hPa 0,0 l/m 0,00 h 0,00 h 0 W/m 10,5 km/h (2 Bft) 97,08 %
30.01.2023 22:00 4,4 C 3,6 C 0,4 C 90 % 1024,9 hPa 0,0 l/m 0,00 h 0,00 h 0 W/m 7,8 km/h (2 Bft) 98,01 %
30.01.2023 23:00 3,9 C 3,2 C 0,0 C 92 % 1025,2 hPa 0,0 l/m 0,00 h 0,00 h 0 W/m 9,4 km/h (2 Bft) 96,36 %
31.01.2023 00:00 3,8 C 3,2 C 0,0 C 91 % 1025,3 hPa 0,0 l/m 0,00 h 0,00 h 0 W/m 6,5 km/h (2 Bft) 96,51 %
31.01.2023 01:00 3,3 C 2,4 C -0,5 C 91 % 1025,3 hPa 0,0 l/m 0,00 h 0,00 h 0 W/m 7,4 km/h (2 Bft) 96,75 %
31.01.2023 02:00 3,0 C 2,3 C -0,6 C 92 % 1025,3 hPa 0,0 l/m 0,00 h 0,00 h 0 W/m 6,9 km/h (2 Bft) 93,99 %
31.01.2023 03:00 2,8 C 2,2 C -0,9 C 92 % 1025,3 hPa 0,0 l/m 0,00 h 0,00 h 0 W/m 9,9 km/h (2 Bft) 96,72 %
31.01.2023 04:00 2,7 C 2,0 C -1,0 C 93 % 1025,0 hPa 0,0 l/m 0,00 h 0,00 h 0 W/m 13,2 km/h (3 Bft) 95,99 %
31.01.2023 05:00 2,8 C 2,2 C -0,6 C 94 % 1024,6 hPa 0,0 l/m 0,00 h 0,00 h 0 W/m 16,3 km/h (3 Bft) 97,88 %
31.01.2023 06:00 3,2 C 2,8 C -0,2 C 94 % 1024,1 hPa 0,0 l/m 0,00 h 0,00 h 0 W/m 13,9 km/h (3 Bft) 95,51 %
31.01.2023 07:00 3,5 C 2,8 C 0,0 C 94 % 1023,8 hPa 0,0 l/m 0,00 h 0,00 h 0 W/m 16,0 km/h (3 Bft) 97,91 %
31.01.2023 08:00 3,7 C 3,1 C 0,2 C 92 % 1023,7 hPa 0,0 l/m 0,00 h 0,00 h 17 W/m 17,0 km/h (3 Bft) 92,55 %
31.01.2023 09:00 4,2 C 3,9 C 0,7 C 91 % 1023,3 hPa 0,0 l/m 0,00 h 0,30 h 37 W/m 19,0 km/h (3 Bft) 95,71 %
31.01.2023 10:00 4,8 C 4,6 C 1,1 C 92 % 1022,8 hPa 0,0 l/m 0,00 h 0,27 h 89 W/m 22,6 km/h (4 Bft) 96,95 %
31.01.2023 11:00 5,6 C 5,8 C 2,2 C 91 % 1022,0 hPa 0,0 l/m 0,20 h 0,03 h 153 W/m 25,3 km/h (4 Bft) 98,50 %
31.01.2023 12:00 6,3 C 6,1 C 3,0 C 90 % 1021,6 hPa 0,0 l/m 0,00 h 0,00 h 86 W/m 21,6 km/h (4 Bft) 96,86 %
31.01.2023 13:00 6,2 C 5,7 C 2,8 C 92 % 1021,2 hPa 0,0 l/m 0,00 h 0,00 h 43 W/m 17,9 km/h (3 Bft) 98,08 %
31.01.2023 14:00 6,2 C 5,6 C 2,4 C 93 % 1020,9 hPa 0,2 l/m 0,00 h 0,20 h 49 W/m 17,2 km/h (3 Bft) 96,36 %
31.01.2023 15:00 6,1 C 5,6 C 2,2 C 96 % 1020,7 hPa 0,0 l/m 0,00 h 0,00 h 30 W/m 18,6 km/h (3 Bft) 95,88 %
31.01.2023 16:00 6,4 C 5,8 C 2,8 C 97 % 1021,2 hPa 0,0 l/m 0,00 h 0,03 h 7 W/m 17,7 km/h (3 Bft) 97,78 %
31.01.2023 17:00 6,8 C 6,1 C 3,2 C 97 % 1021,5 hPa 0,0 l/m 0,00 h 0,07 h 0 W/m 14,9 km/h (3 Bft) 97,65 %
31.01.2023 18:00 6,8 C 6,1 C 3,3 C 96 % 1021,7 hPa 0,0 l/m 0,00 h 0,03 h 0 W/m 14,6 km/h (3 Bft) 96,02 %
31.01.2023 19:00 6,4 C 5,6 C 2,9 C 96 % 1021,6 hPa 0,0 l/m 0,00 h 0,00 h 0 W/m 8,4 km/h (2 Bft) 68,89 %
31.01.2023 20:00 6,7 C 6,1 C 3,3 C 95 % 1021,7 hPa 0,0 l/m 0,00 h 0,10 h 0 W/m 14,2 km/h (3 Bft) 48,27 %
31.01.2023 21:00 6,3 C 5,5 C 2,7 C 90 % 1021,8 hPa 0,0 l/m 0,00 h 0,00 h 0 W/m 11,3 km/h (2 Bft) 91,60 %
31.01.2023 22:00 6,1 C 5,3 C 2,4 C 94 % 1021,6 hPa 0,0 l/m 0,00 h 0,00 h 0 W/m 10,4 km/h (2 Bft) 97,93 %
31.01.2023 23:00 6,1 C 5,5 C 2,8 C 95 % 1021,2 hPa 0,0 l/m 0,00 h 0,00 h 0 W/m 13,9 km/h (3 Bft) 88,34 %
01.02.2023 00:00 5,8 C 5,1 C 2,5 C 93 % 1020,9 hPa 0,0 l/m 0,00 h 0,00 h 0 W/m 12,0 km/h (2 Bft) 92,74 %
01.02.2023 01:00 5,9 C 5,2 C 2,5 C 93 % 1020,8 hPa 0,0 l/m 0,00 h 0,00 h 0 W/m 12,6 km/h (3 Bft) 94,88 %
01.02.2023 02:00 5,3 C 4,6 C 2,0 C 91 % 1020,7 hPa 0,0 l/m 0,00 h 0,00 h 0 W/m 12,3 km/h (3 Bft) 89,05 %
01.02.2023 03:00 4,9 C 4,2 C 1,5 C 88 % 1020,4 hPa 0,0 l/m 0,00 h 0,00 h 0 W/m 14,2 km/h (3 Bft) 90,93 %
01.02.2023 04:00 5,0 C 4,3 C 1,5 C 89 % 1020,0 hPa 0,0 l/m 0,00 h 0,00 h 0 W/m 18,0 km/h (3 Bft) 88,19 %
01.02.2023 05:00 5,2 C 4,4 C 1,7 C 89 % 1019,6 hPa 0,0 l/m 0,00 h 0,00 h 0 W/m 20,3 km/h (4 Bft) 80,02 %
01.02.2023 06:00 4,9 C 4,1 C 1,2 C 89 % 1019,7 hPa 0,0 l/m 0,00 h 0,00 h 0 W/m 19,6 km/h (3 Bft) 91,80 %
01.02.2023 07:00 5,0 C 4,3 C 1,4 C 89 % 1019,6 hPa 0,0 l/m 0,00 h 0,00 h 0 W/m 19,5 km/h (3 Bft) 96,72 %
01.02.2023 08:00 5,3 C 4,8 C 1,7 C 88 % 1019,9 hPa 0,0 l/m 0,00 h 0,00 h 8 W/m 22,7 km/h (4 Bft) 97,81 %
01.02.2023 09:00 5,5 C 5,1 C 1,9 C 88 % 1020,2 hPa 0,0 l/m 0,00 h 0,00 h 51 W/m 21,8 km/h (4 Bft) 96,06 %
01.02.2023 10:00 5,9 C 5,8 C 2,5 C 87 % 1020,2 hPa 0,0 l/m 0,03 h 0,00 h 84 W/m 24,0 km/h (4 Bft) 97,88 %
01.02.2023 11:00 6,6 C 7,4 C 3,2 C 85 % 1020,0 hPa 0,0 l/m 0,37 h 0,00 h 173 W/m 24,4 km/h (4 Bft) 93,70 %
01.02.2023 12:00 7,0 C 6,7 C 3,3 C 83 % 1019,7 hPa 0,0 l/m 0,00 h 0,03 h 93 W/m 25,4 km/h (4 Bft) 97,60 %
01.02.2023 13:00 7,2 C 6,7 C 3,3 C 83 % 1019,2 hPa 0,0 l/m 0,00 h 0,00 h 51 W/m 20,4 km/h (4 Bft) 98,15 %
01.02.2023 14:00 7,5 C 6,9 C 3,4 C 81 % 1018,8 hPa 0,0 l/m 0,00 h 0,00 h 31 W/m 20,8 km/h (4 Bft) 95,98 %
01.02.2023 15:00 7,8 C 7,2 C 3,8 C 80 % 1018,9 hPa 0,0 l/m 0,00 h 0,00 h 32 W/m 23,2 km/h (4 Bft) 96,68 %
01.02.2023 16:00 7,8 C 7,2 C 3,6 C 81 % 1019,2 hPa 0,0 l/m 0,00 h 0,00 h 15 W/m 22,5 km/h (4 Bft) 98,81 %
01.02.2023 17:00 7,7 C 7,1 C 3,3 C 83 % 1019,4 hPa 0,0 l/m 0,00 h 0,03 h 0 W/m 25,5 km/h (4 Bft) 89,51 %
01.02.2023 18:00 7,7 C 7,0 C 3,3 C 83 % 1019,8 hPa 0,0 l/m 0,00 h 0,00 h 0 W/m 22,7 km/h (4 Bft) 73,38 %
01.02.2023 19:00 7,6 C 6,9 C 3,3 C 83 % 1019,9 hPa 0,0 l/m 0,00 h 0,00 h 0 W/m 22,1 km/h (4 Bft) 84,69 %
01.02.2023 20:00 7,6 C 6,9 C 3,4 C 84 % 1020,0 hPa 0,0 l/m 0,00 h 0,00 h 0 W/m 19,4 km/h (3 Bft) 83,66 %
01.02.2023 21:00 7,9 C 7,2 C 3,9 C 84 % 1020,0 hPa 0,0 l/m 0,00 h 0,00 h 0 W/m 21,0 km/h (4 Bft) 95,63 %
01.02.2023 22:00 7,9 C 7,2 C 3,7 C 86 % 1020,4 hPa 0,0 l/m 0,00 h 0,00 h 0 W/m 19,4 km/h (3 Bft) 96,51 %
01.02.2023 23:00 7,7 C 7,1 C 3,3 C 87 % 1020,8 hPa 0,0 l/m 0,00 h 0,00 h 0 W/m 18,0 km/h (3 Bft) 96,01 %
02.02.2023 00:00 7,5 C 6,7 C 3,3 C 88 % 1021,2 hPa 0,0 l/m 0,00 h 0,00 h 0 W/m 17,0 km/h (3 Bft) 98,86 %
02.02.2023 01:00 7,3 C 6,7 C 3,2 C 90 % 1021,3 hPa 0,0 l/m 0,00 h 0,07 h 0 W/m 16,0 km/h (3 Bft) 96,94 %
02.02.2023 02:00 7,3 C 6,7 C 3,3 C 92 % 1021,5 hPa 0,0 l/m 0,00 h 0,07 h 0 W/m 16,6 km/h (3 Bft) 96,53 %
02.02.2023 03:00 7,3 C 6,7 C 3,0 C 92 % 1021,5 hPa 0,2 l/m 0,00 h 0,53 h 0 W/m 14,7 km/h (3 Bft) 97,95 %
02.02.2023 04:00 7,3 C 6,7 C 2,9 C 93 % 1021,6 hPa 0,0 l/m 0,00 h 0,80 h 0 W/m 15,5 km/h (3 Bft) 93,78 %
02.02.2023 05:00 7,5 C 6,7 C 3,5 C 91 % 1021,8 hPa 0,0 l/m 0,00 h 0,10 h 0 W/m 15,5 km/h (3 Bft) 88,39 %
02.02.2023 06:00 7,3 C 6,7 C 3,3 C 92 % 1021,8 hPa 0,0 l/m 0,00 h 0,15 h 0 W/m 15,9 km/h (3 Bft) 97,20 %
02.02.2023 07:00 7,2 C 6,6 C 3,3 C 93 % 1022,2 hPa 0,0 l/m 0,00 h 0,03 h 0 W/m 17,8 km/h (3 Bft) 90,76 %
02.02.2023 08:00 7,1 C 6,4 C 3,3 C 94 % 1022,5 hPa 0,2 l/m 0,00 h 0,23 h 6 W/m 16,8 km/h (3 Bft) 94,99 %
02.02.2023 09:00 7,1 C 6,2 C 3,0 C 95 % 1022,8 hPa 0,4 l/m 0,00 h 0,90 h 16 W/m 17,3 km/h (3 Bft) 97,79 %
02.02.2023 10:00 7,1 C 6,6 C 3,3 C 96 % 1023,6 hPa 0,0 l/m 0,00 h 0,07 h 30 W/m 15,1 km/h (3 Bft) 96,87 %
02.02.2023 11:00 7,4 C 7,0 C 3,6 C 96 % 1024,4 hPa 0,0 l/m 0,00 h 0,00 h 58 W/m 16,3 km/h (3 Bft) 96,90 %
02.02.2023 12:00 7,8 C 7,5 C 4,3 C 94 % 1024,6 hPa 0,0 l/m 0,00 h 0,13 h 67 W/m 14,9 km/h (3 Bft) 96,37 %
02.02.2023 13:00 8,1 C 7,8 C 4,8 C 92 % 1024,4 hPa 0,0 l/m 0,00 h 0,17 h 61 W/m 16,8 km/h (3 Bft) 98,22 %
02.02.2023 14:00 8,1 C 7,4 C 4,3 C 91 % 1024,4 hPa 0,0 l/m 0,00 h 0,13 h 32 W/m 13,9 km/h (3 Bft) 96,28 %
02.02.2023 15:00 8,4 C 8,0 C 4,8 C 91 % 1024,5 hPa 0,0 l/m 0,00 h 0,00 h 25 W/m 16,8 km/h (3 Bft) 98,87 %
02.02.2023 16:00 8,5 C 7,8 C 4,6 C 91 % 1025,0 hPa 0,0 l/m 0,00 h 0,17 h 25 W/m 16,5 km/h (3 Bft) 97,25 %
02.02.2023 17:00 7,9 C 7,0 C 3,9 C 95 % 1025,7 hPa 0,2 l/m 0,00 h 0,07 h 5 W/m 12,5 km/h (3 Bft) 96,58 %
02.02.2023 18:00 7,7 C 6,8 C 3,9 C 97 % 1026,0 hPa 0,6 l/m 0,00 h 0,55 h 0 W/m 13,5 km/h (3 Bft) 97,86 %
02.02.2023 19:00 7,7 C 6,9 C 3,9 C 98 % 1026,1 hPa 0,4 l/m 0,00 h 0,33 h 0 W/m 11,0 km/h (2 Bft) 96,94 %
02.02.2023 20:00 7,5 C 6,8 C 3,9 C 98 % 1026,1 hPa 0,0 l/m 0,00 h 0,30 h 0 W/m 12,7 km/h (3 Bft) 96,80 %
02.02.2023 21:00 7,6 C 7,2 C 3,9 C 97 % 1026,1 hPa 0,2 l/m 0,00 h 0,13 h 0 W/m 11,3 km/h (2 Bft) 98,31 %
02.02.2023 22:00 7,9 C 7,2 C 4,3 C 96 % 1026,4 hPa 0,0 l/m 0,00 h 0,00 h 0 W/m 12,1 km/h (2 Bft) 96,27 %
02.02.2023 23:00 8,2 C 7,6 C 4,4 C 95 % 1026,4 hPa 0,0 l/m 0,00 h 0,00 h 0 W/m 12,1 km/h (2 Bft) 70,97 %
03.02.2023 00:00 8,4 C 7,8 C 4,7 C 93 % 1026,2 hPa 0,0 l/m 0,00 h 0,00 h 0 W/m 16,0 km/h (3 Bft) 98,55 %
03.02.2023 01:00 8,5 C 7,8 C 5,0 C 92 % 1025,4 hPa 0,0 l/m 0,00 h 0,00 h 0 W/m 15,9 km/h (3 Bft) 96,21 %
03.02.2023 02:00 8,5 C 7,8 C 5,0 C 92 % 1025,7 hPa 0,0 l/m 0,00 h 0,00 h 0 W/m 15,6 km/h (3 Bft) 98,21 %
03.02.2023 03:00 8,6 C 7,8 C 5,0 C 91 % 1025,5 hPa 0,0 l/m 0,00 h 0,00 h 0 W/m 16,1 km/h (3 Bft) 96,14 %
03.02.2023 04:00 8,7 C 7,8 C 5,0 C 91 % 1025,3 hPa 0,0 l/m 0,00 h 0,00 h 0 W/m 17,2 km/h (3 Bft) 97,83 %
03.02.2023 05:00 8,7 C 7,9 C 5,0 C 90 % 1025,2 hPa 0,0 l/m 0,00 h 0,00 h 0 W/m 17,6 km/h (3 Bft) 96,37 %
03.02.2023 06:00 8,8 C 8,3 C 5,0 C 89 % 1025,0 hPa 0,0 l/m 0,00 h 0,00 h 0 W/m 19,8 km/h (4 Bft) 98,27 %
03.02.2023 07:00 8,9 C 8,3 C 5,0 C 88 % 1025,1 hPa 0,0 l/m 0,00 h 0,00 h 0 W/m 20,5 km/h (4 Bft) 95,60 %
03.02.2023 08:00 8,9 C 8,3 C 5,0 C 89 % 1025,1 hPa 0,0 l/m 0,00 h 0,00 h 7 W/m 19,7 km/h (3 Bft) 97,24 %
03.02.2023 09:00 9,1 C 8,3 C 5,1 C 89 % 1025,5 hPa 0,0 l/m 0,00 h 0,00 h 15 W/m 22,1 km/h (4 Bft) 98,07 %
03.02.2023 10:00 8,6 C 7,8 C 4,9 C 92 % 1025,8 hPa 0,0 l/m 0,00 h 0,00 h 20 W/m 20,6 km/h (4 Bft) 97,50 %
03.02.2023 11:00 8,5 C 8,0 C 4,9 C 95 % 1025,9 hPa 0,0 l/m 0,00 h 0,07 h 46 W/m 19,3 km/h (3 Bft) 96,22 %
03.02.2023 12:00 9,0 C 8,6 C 5,8 C 94 % 1025,9 hPa 0,0 l/m 0,00 h 0,00 h 47 W/m 17,8 km/h (3 Bft) 99,67 %
03.02.2023 13:00 9,8 C 9,4 C 6,2 C 91 % 1026,1 hPa 0,0 l/m 0,00 h 0,00 h 37 W/m 18,9 km/h (3 Bft) 95,87 %
03.02.2023 14:00 10,1 C 9,5 C 6,6 C 90 % 1026,1 hPa 0,0 l/m 0,00 h 0,00 h 48 W/m 18,6 km/h (3 Bft) 97,72 %
03.02.2023 15:00 10,3 C 9,8 C 6,5 C 90 % 1026,2 hPa 0,0 l/m 0,00 h 0,10 h 36 W/m 18,9 km/h (3 Bft) 98,00 %
03.02.2023 16:00 9,6 C 8,6 C 5,8 C 90 % 1027,1 hPa 0,0 l/m 0,00 h 0,17 h 10 W/m 26,3 km/h (4 Bft) 94,49 %
03.02.2023 17:00 8,9 C 8,3 C 5,0 C 92 % 1027,8 hPa 0,0 l/m 0,00 h 0,00 h 7 W/m 12,4 km/h (3 Bft) 96,25 %
03.02.2023 18:00 8,8 C 8,1 C 5,0 C 91 % 1028,4 hPa 0,0 l/m 0,00 h 0,00 h 0 W/m 13,1 km/h (3 Bft) 98,67 %
03.02.2023 19:00 8,6 C 7,8 C 5,0 C 90 % 1029,2 hPa 0,0 l/m 0,00 h 0,00 h 0 W/m 16,1 km/h (3 Bft) 95,04 %
03.02.2023 20:00 8,6 C 7,8 C 5,0 C 91 % 1029,7 hPa 0,0 l/m 0,00 h 0,00 h 0 W/m 16,1 km/h (3 Bft) 97,77 %
03.02.2023 21:00 8,4 C 7,8 C 5,0 C 91 % 1030,3 hPa 0,0 l/m 0,00 h 0,00 h 0 W/m 16,7 km/h (3 Bft) 97,23 %
03.02.2023 22:00 8,2 C 7,5 C 4,4 C 86 % 1030,6 hPa 0,0 l/m 0,00 h 0,00 h 0 W/m 13,9 km/h (3 Bft) 95,45 %
03.02.2023 23:00 8,2 C 7,2 C 4,4 C 87 % 1031,1 hPa 0,0 l/m 0,00 h 0,00 h 0 W/m 14,3 km/h (3 Bft) 98,86 %
04.02.2023 00:00 7,9 C 7,2 C 4,1 C 88 % 1031,7 hPa 0,0 l/m 0,00 h 0,00 h 0 W/m 14,9 km/h (3 Bft) 93,23 %
04.02.2023 01:00 7,6 C 6,8 C 3,7 C 89 % 1032,3 hPa 0,0 l/m 0,00 h 0,00 h 0 W/m 11,1 km/h (2 Bft) 96,94 %
04.02.2023 02:00 7,2 C 6,6 C 3,3 C 90 % 1032,7 hPa 0,0 l/m 0,00 h 0,00 h 0 W/m 7,4 km/h (2 Bft) 98,23 %
04.02.2023 03:00 7,0 C 6,1 C 3,3 C 91 % 1033,2 hPa 0,0 l/m 0,00 h 0,00 h 0 W/m 7,0 km/h (2 Bft) 95,87 %
04.02.2023 04:00 6,7 C 5,9 C 3,0 C 92 % 1033,6 hPa 0,0 l/m 0,00 h 0,00 h 0 W/m 6,2 km/h (2 Bft) 97,08 %
04.02.2023 05:00 6,2 C 5,2 C 2,5 C 94 % 1034,0 hPa 0,0 l/m 0,00 h 0,00 h 0 W/m 5,7 km/h (1 Bft) 99,15 %
04.02.2023 06:00 5,7 C 4,6 C 2,2 C 95 % 1034,4 hPa 0,0 l/m 0,00 h 0,00 h 0 W/m 3,0 km/h (1 Bft) 93,47 %
04.02.2023 07:00 5,5 C 4,6 C 2,2 C 96 % 1034,9 hPa 0,0 l/m 0,00 h 0,00 h 0 W/m 0,2 km/h (0 Bft) 96,44 %
04.02.2023 08:00 5,5 C 4,8 C 2,3 C 96 % 1035,4 hPa 0,0 l/m 0,00 h 0,00 h 12 W/m 0,0 km/h (0 Bft) 96,39 %
04.02.2023 09:00 5,9 C 5,8 C 3,1 C 97 % 1036,0 hPa 0,0 l/m 0,00 h 0,00 h 56 W/m 0,7 km/h (0 Bft) 98,99 %
04.02.2023 10:00 6,7 C 6,8 C 4,1 C 97 % 1036,6 hPa 0,0 l/m 0,00 h 0,00 h 95 W/m 6,0 km/h (2 Bft) 96,70 %
04.02.2023 11:00 7,5 C 9,0 C 5,3 C 95 % 1036,9 hPa 0,0 l/m 0,80 h 0,00 h 198 W/m 6,5 km/h (2 Bft) 93,69 %
04.02.2023 12:00 8,5 C 10,3 C 6,3 C 91 % 1036,9 hPa 0,0 l/m 0,77 h 0,00 h 214 W/m 4,4 km/h (1 Bft) 95,85 %
04.02.2023 13:00 9,2 C 11,1 C 6,4 C 85 % 1036,9 hPa 0,0 l/m 1,00 h 0,00 h 230 W/m 7,5 km/h (2 Bft) 99,43 %
04.02.2023 14:00 9,5 C 10,5 C 6,1 C 83 % 1036,8 hPa 0,0 l/m 0,97 h 0,00 h 185 W/m 6,8 km/h (2 Bft) 97,47 %
04.02.2023 15:00 9,5 C 9,7 C 5,9 C 81 % 1036,7 hPa 0,0 l/m 0,50 h 0,00 h 120 W/m 4,2 km/h (1 Bft) 95,51 %
04.02.2023 16:00 9,3 C 8,7 C 5,1 C 80 % 1037,0 hPa 0,0 l/m 0,00 h 0,00 h 39 W/m 2,2 km/h (1 Bft) 98,58 %
04.02.2023 17:00 8,6 C 6,7 C 3,2 C 82 % 1037,3 hPa 0,0 l/m 0,00 h 0,00 h 12 W/m 0,0 km/h (0 Bft) 96,37 %
04.02.2023 18:00 7,9 C 6,9 C 3,3 C 86 % 1037,7 hPa 0,0 l/m 0,00 h 0,00 h 0 W/m 0,0 km/h (0 Bft) 97,11 %
04.02.2023 19:00 7,9 C 6,9 C 3,4 C 86 % 1037,7 hPa 0,0 l/m 0,00 h 0,00 h 0 W/m 0,0 km/h (0 Bft) 98,49 %
04.02.2023 20:00 7,4 C 5,7 C 2,2 C 87 % 1037,7 hPa 0,0 l/m 0,00 h 0,00 h 0 W/m 0,2 km/h (0 Bft) 84,64 %
04.02.2023 21:00 6,7 C 5,6 C 2,2 C 89 % 1037,8 hPa 0,0 l/m 0,00 h 0,00 h 0 W/m 0,0 km/h (0 Bft) 86,82 %
04.02.2023 22:00 6,4 C 5,3 C 2,1 C 90 % 1037,7 hPa 0,0 l/m 0,00 h 0,00 h 0 W/m 0,0 km/h (0 Bft) 95,22 %
04.02.2023 23:00 6,4 C 5,7 C 2,2 C 92 % 1037,6 hPa 0,2 l/m 0,00 h 0,37 h 0 W/m 0,0 km/h (0 Bft) 89,40 %
05.02.2023 00:00 6,6 C 5,6 C 2,3 C 94 % 1037,8 hPa 0,0 l/m 0,00 h 0,20 h 0 W/m 0,6 km/h (0 Bft) 93,58 %
05.02.2023 01:00 6,6 C 5,7 C 2,8 C 95 % 1037,0 hPa 0,2 l/m 0,00 h 0,17 h 0 W/m 3,0 km/h (1 Bft) 97,58 %
05.02.2023 02:00 6,3 C 5,6 C 2,2 C 96 % 1036,5 hPa 0,0 l/m 0,00 h 0,00 h 0 W/m 0,2 km/h (0 Bft) 91,27 %
05.02.2023 03:00 6,2 C 5,6 C 2,6 C 96 % 1036,5 hPa 0,0 l/m 0,00 h 0,00 h 0 W/m 1,6 km/h (1 Bft) 95,26 %
05.02.2023 04:00 6,5 C 5,7 C 3,0 C 97 % 1036,0 hPa 0,0 l/m 0,00 h 0,00 h 0 W/m 3,4 km/h (1 Bft) 90,23 %
05.02.2023 05:00 6,8 C 6,1 C 3,3 C 98 % 1036,1 hPa 0,2 l/m 0,00 h 0,20 h 0 W/m 4,6 km/h (1 Bft) 90,95 %
05.02.2023 06:00 6,8 C 6,1 C 3,3 C 98 % 1036,0 hPa 0,0 l/m 0,00 h 0,00 h 0 W/m 4,5 km/h (1 Bft) 89,05 %
05.02.2023 07:00 6,6 C 6,1 C 3,3 C 98 % 1035,7 hPa 0,0 l/m 0,00 h 0,07 h 0 W/m 7,7 km/h (2 Bft) 97,07 %
05.02.2023 08:00 6,4 C 6,1 C 3,3 C 98 % 1035,6 hPa 0,4 l/m 0,00 h 0,67 h 6 W/m 9,1 km/h (2 Bft) 98,52 %
05.02.2023 09:00 6,1 C 5,6 C 2,8 C 98 % 1036,1 hPa 0,4 l/m 0,00 h 0,40 h 27 W/m 26,9 km/h (4 Bft) 96,80 %
05.02.2023 10:00 6,0 C 5,9 C 2,8 C 96 % 1036,6 hPa 0,0 l/m 0,03 h 0,67 h 72 W/m 30,7 km/h (5 Bft) 96,97 %
05.02.2023 11:00 6,3 C 6,1 C 2,8 C 94 % 1036,7 hPa 0,0 l/m 0,00 h 0,47 h 61 W/m 30,7 km/h (5 Bft) 98,44 %
05.02.2023 12:00 6,6 C 6,3 C 3,5 C 92 % 1036,5 hPa 0,0 l/m 0,00 h 0,40 h 66 W/m 32,3 km/h (5 Bft) 96,16 %
05.02.2023 13:00 6,8 C 6,4 C 3,6 C 89 % 1036,9 hPa 0,0 l/m 0,00 h 0,07 h 35 W/m 31,7 km/h (5 Bft) 94,91 %
05.02.2023 14:00 7,3 C 7,1 C 4,0 C 85 % 1037,1 hPa 0,0 l/m 0,00 h 0,00 h 74 W/m 32,0 km/h (5 Bft) 98,59 %
05.02.2023 15:00 7,2 C 6,8 C 3,4 C 87 % 1037,9 hPa 0,0 l/m 0,07 h 0,07 h 74 W/m 26,5 km/h (4 Bft) 96,65 %
05.02.2023 16:00 6,9 C 6,7 C 3,3 C 88 % 1038,3 hPa 0,0 l/m 0,00 h 0,00 h 30 W/m 19,1 km/h (3 Bft) 96,68 %
05.02.2023 17:00 7,0 C 6,3 C 3,1 C 84 % 1039,0 hPa 0,0 l/m 0,07 h 0,00 h 12 W/m 16,8 km/h (3 Bft) 92,16 %
05.02.2023 18:00 6,5 C 5,6 C 2,6 C 84 % 1039,9 hPa 0,0 l/m 0,00 h 0,00 h 0 W/m 15,8 km/h (3 Bft) 87,33 %
05.02.2023 19:00 6,3 C 5,6 C 2,2 C 82 % 1040,3 hPa 0,0 l/m 0,00 h 0,00 h 0 W/m 20,3 km/h (4 Bft) 90,46 %
05.02.2023 20:00 6,2 C 5,5 C 2,2 C 82 % 1041,1 hPa 0,0 l/m 0,00 h 0,00 h 0 W/m 18,9 km/h (3 Bft) 66,81 %
05.02.2023 21:00 5,5 C 4,5 C 1,4 C 84 % 1041,4 hPa 0,0 l/m 0,00 h 0,00 h 0 W/m 12,9 km/h (3 Bft) 72,97 %
05.02.2023 22:00 4,4 C 2,9 C -0,1 C 87 % 1041,8 hPa 0,0 l/m 0,00 h 0,00 h 0 W/m 6,4 km/h (2 Bft) 76,68 %
05.02.2023 23:00 3,4 C 2,1 C -0,8 C 89 % 1042,2 hPa 0,0 l/m 0,00 h 0,00 h 0 W/m 7,0 km/h (2 Bft) 92,08 %
Min-Datum _ 31.01.23 31.01.23 31.01.23 30.01.23 30.01.23 - - - - 31.01.23 04.02.23
_ Min-Zeit 04:48 04:10 03:26 14:38 07:00 - - - - 02:20 11:56
Minimum _ 2,6 C 1,7 C -1,1 C 76 % 1016,2 hPa - - - - 0,0 km/h (0 Bft) 6,25 %
Max-Datum _ 03.02.23 04.02.23 03.02.23 30.01.23 05.02.23 30.01.23 04.02.23 02.02.23 01.02.23 05.02.23 30.01.23
_ Max-Zeit 15:04 13:10 13:44 07:26 23:56 07:12 12:12 04:23 11:22 13:44 01:04
Maximum _ 10,3 C 12,2 C 6,7 C 98 % 1042,4 hPa 0,6 l/m 0,07 h 0,08 h 403 W/m 61,2 km/h
NW (7 Bft)
100,00 %
Durchschnitt _ 6,7 C 6,2 C 3,0 C 90 % 1026,7 hPa #4,8 l/m #6:12 h #12:16 h 60 W/m 15,0 km/h (3 Bft) 94,34 %
© 2023 W. Hausmann